This is the latest recevied weather packets stored in our database for station/object K3BAY-1. If no packets are shown the sender has not sent any weather packets the latest 10 day(s).
| Time | Temp. | Humidity | Pressure | Rain* | Wind** | Luminosity | Snow |
|---|---|---|---|---|---|---|---|
| 1777825781 | 13.89° C | 39% | 1015.3 hPa | 0 mm | - | 663 W/m² | - |
| 1777825479 | 13.89° C | 41% | 1015.3 hPa | 0 mm | - | 51 W/m² | - |
| 1777825176 | 13.33° C | 41% | 1015.3 hPa | 0 mm | - | 52 W/m² | - |
| 1777824872 | 13.33° C | 43% | 1015.3 hPa | 0 mm | - | 46 W/m² | - |
| 1777824568 | 13.33° C | 41% | 1015.6 hPa | 0 mm | - | 49 W/m² | - |
| 1777824266 | 13.33° C | 40% | 1015.3 hPa | 0 mm | - | 44 W/m² | - |
| 1777823961 | 12.78° C | 46% | 1014.2 hPa | 0 mm | - | 48 W/m² | - |
| 1777823659 | 12.78° C | 41% | 1014.2 hPa | 0 mm | - | 43 W/m² | - |
| 1777823355 | 13.89° C | 43% | 1014.2 hPa | 0 mm | - | 43 W/m² | - |
| 1777823053 | 12.78° C | 41% | 1014.2 hPa | 0 mm | - | 44 W/m² | - |
| 1777822751 | 12.22° C | 45% | 1014.2 hPa | 0 mm | - | 43 W/m² | - |
| 1777822449 | 12.22° C | 45% | 1014.6 hPa | 0 mm | - | 50 W/m² | - |
| 1777822146 | 12.22° C | 46% | 1014.6 hPa | 0 mm | - | 43 W/m² | - |
| 1777821843 | 11.67° C | 51% | 1014.6 hPa | 0 mm | - | 44 W/m² | - |
| 1777821540 | 11.67° C | 46% | 1014.6 hPa | 0 mm | - | 54 W/m² | - |
| 1777821238 | 11.11° C | 50% | 1014.6 hPa | 0 mm | - | 43 W/m² | - |
| 1777820935 | 11.11° C | 50% | 1014.9 hPa | 0 mm | - | 40 W/m² | - |
| 1777820631 | 11.67° C | 51% | 1014.6 hPa | 0 mm | - | 48 W/m² | - |
| 1777820328 | 11.11° C | 47% | 1014.9 hPa | 0 mm | - | 46 W/m² | - |
| 1777820026 | 11.11° C | 45% | 1014.9 hPa | 0 mm | - | 52 W/m² | - |
| 1777819722 | 11.11° C | 55% | 1014.6 hPa | 0 mm | - | 46 W/m² | - |
| 1777819421 | 10.56° C | 48% | 1014.9 hPa | 0 mm | - | 45 W/m² | - |
| 1777819117 | 10.56° C | 49% | 1014.9 hPa | 0 mm | - | 43 W/m² | - |
| 1777818814 | 11.11° C | 47% | 1014.9 hPa | 0 mm | - | 63 W/m² | - |
| 1777818510 | 10.56° C | 48% | 1014.9 hPa | 0 mm | - | 59 W/m² | - |
* Rain latest hour (hover to see other rain measurements)
** Current wind speed in m/s (hover to see current wind gust speed)